createdAt,value
2022-11-21T00:00:19.051Z,45.44
2022-11-21T00:00:52.739Z,45.33
2022-11-21T00:01:29.671Z,45.45
2022-11-21T00:02:01.947Z,45.56
2022-11-21T00:02:34.224Z,45.23
2022-11-21T00:03:09.169Z,45.62
2022-11-21T00:03:41.553Z,45.66
2022-11-21T00:04:13.822Z,45.40
2022-11-21T00:04:48.725Z,45.35
2022-11-21T00:05:20.971Z,45.58
2022-11-21T00:05:53.220Z,45.23
2022-11-21T00:06:28.139Z,45.33
2022-11-21T00:07:00.425Z,45.57
2022-11-21T00:07:32.810Z,45.53
2022-11-21T00:08:08.430Z,45.56
2022-11-21T00:08:40.716Z,45.35
2022-11-21T00:09:15.621Z,45.45
2022-11-21T00:09:47.887Z,45.50
2022-11-21T00:10:20.177Z,45.18
2022-11-21T00:10:52.484Z,45.62
2022-11-21T00:11:27.361Z,45.61
2022-11-21T00:11:59.609Z,45.14
2022-11-21T00:12:31.871Z,45.61
2022-11-21T00:13:06.905Z,45.49
2022-11-21T00:13:39.362Z,45.66
2022-11-21T00:14:14.282Z,45.31
2022-11-21T00:14:49.205Z,45.23
2022-11-21T00:15:21.663Z,45.45
2022-11-21T00:15:53.967Z,45.28
2022-11-21T00:16:28.909Z,45.41
2022-11-21T00:17:01.173Z,45.40
2022-11-21T00:17:33.516Z,45.69
2022-11-21T00:18:06.124Z,45.63
2022-11-21T00:18:41.789Z,45.66
2022-11-21T00:19:14.077Z,45.64
2022-11-21T00:19:46.331Z,45.29
2022-11-21T00:20:22.127Z,45.24
2022-11-21T00:20:54.371Z,45.28
2022-11-21T00:21:26.700Z,45.63
2022-11-21T00:22:01.576Z,45.44
2022-11-21T00:22:33.932Z,45.30
2022-11-21T00:23:06.447Z,45.57
2022-11-21T00:23:41.432Z,45.46
2022-11-21T00:24:13.904Z,45.36
2022-11-21T00:24:49.468Z,45.69
2022-11-21T00:25:26.619Z,45.45
2022-11-21T00:25:58.977Z,45.48
2022-11-21T00:26:31.231Z,45.70
2022-11-21T00:27:06.141Z,45.59
2022-11-21T00:27:38.429Z,45.45
2022-11-21T00:28:10.699Z,45.81
2022-11-21T00:28:45.588Z,45.74
2022-11-21T00:29:20.958Z,45.74
2022-11-21T00:29:53.274Z,45.64
2022-11-21T00:30:28.316Z,45.64
2022-11-21T00:31:00.659Z,45.49
2022-11-21T00:31:35.566Z,45.57
2022-11-21T00:32:07.848Z,45.43
2022-11-21T00:32:40.319Z,45.45
2022-11-21T00:33:12.613Z,45.71
2022-11-21T00:33:47.604Z,45.57
2022-11-21T00:34:19.862Z,45.39
2022-11-21T00:34:52.137Z,45.35
2022-11-21T00:35:27.237Z,45.74
2022-11-21T00:35:59.519Z,45.64
2022-11-21T00:36:31.762Z,45.28
2022-11-21T00:37:06.641Z,45.52
2022-11-21T00:37:38.892Z,45.33
2022-11-21T00:38:11.162Z,45.55
2022-11-21T00:38:46.133Z,45.52
2022-11-21T00:39:18.513Z,45.58
2022-11-21T00:39:50.877Z,45.52
2022-11-21T00:40:25.760Z,45.42
2022-11-21T00:40:58.072Z,45.54
2022-11-21T00:41:30.321Z,45.63
2022-11-21T00:42:05.245Z,45.21
2022-11-21T00:42:37.515Z,45.23
2022-11-21T00:43:09.997Z,45.63
2022-11-21T00:43:44.927Z,45.49
2022-11-21T00:44:19.846Z,45.33
2022-11-21T00:44:52.129Z,45.62
2022-11-21T00:45:26.988Z,45.43
2022-11-21T00:46:01.491Z,45.29
2022-11-21T00:46:33.783Z,45.44
2022-11-21T00:47:08.743Z,45.54
2022-11-21T00:47:41.009Z,45.14
2022-11-21T00:48:13.265Z,45.21
2022-11-21T00:48:48.170Z,45.59
2022-11-21T00:49:20.508Z,45.23
2022-11-21T00:49:52.764Z,45.12
2022-11-21T00:50:25.021Z,45.57
2022-11-21T00:51:00.767Z,45.20
2022-11-21T00:51:33.325Z,45.34
2022-11-21T00:52:05.580Z,45.65
2022-11-21T00:52:40.541Z,45.57
2022-11-21T00:53:13.066Z,45.34
2022-11-21T00:53:45.388Z,45.45
2022-11-21T00:54:20.382Z,45.55
2022-11-21T00:54:52.672Z,45.51
2022-11-21T00:55:25.628Z,45.48
2022-11-21T00:56:00.800Z,45.47
2022-11-21T00:56:33.064Z,45.63
2022-11-21T00:57:05.311Z,45.66
2022-11-21T00:57:40.211Z,45.20
2022-11-21T00:58:12.472Z,45.50
2022-11-21T00:58:44.760Z,45.71
2022-11-21T00:59:22.338Z,45.47
2022-11-21T00:59:54.626Z,45.28
2022-11-21T01:00:26.993Z,45.29
2022-11-21T01:01:07.148Z,45.26
2022-11-21T01:01:39.497Z,45.42
2022-11-21T01:02:14.395Z,45.58
2022-11-21T01:02:46.652Z,45.33
2022-11-21T01:03:19.020Z,45.64
2022-11-21T01:03:53.935Z,45.21
2022-11-21T01:04:26.554Z,45.61
2022-11-21T01:04:59.038Z,45.54
2022-11-21T01:05:35.085Z,45.21
2022-11-21T01:06:09.275Z,45.28
2022-11-21T01:06:41.652Z,45.49
2022-11-21T01:07:17.100Z,45.23
2022-11-21T01:07:49.430Z,45.45
2022-11-21T01:08:21.688Z,45.22
2022-11-21T01:08:56.616Z,45.52
2022-11-21T01:09:28.897Z,45.45
2022-11-21T01:10:01.188Z,45.20
2022-11-21T01:10:37.202Z,45.21
2022-11-21T01:11:11.507Z,45.30
2022-11-21T01:11:43.856Z,45.63
2022-11-21T01:12:18.792Z,45.50
2022-11-21T01:12:51.047Z,45.77
2022-11-21T01:13:23.400Z,45.77
2022-11-21T01:13:58.384Z,45.29
2022-11-21T01:14:33.301Z,45.25
2022-11-21T01:15:07.029Z,45.30
2022-11-21T01:15:41.943Z,45.55
2022-11-21T01:16:16.284Z,45.52
2022-11-21T01:16:48.590Z,45.70
2022-11-21T01:17:23.518Z,45.24
2022-11-21T01:17:55.815Z,45.51
2022-11-21T01:18:28.112Z,45.33
2022-11-21T01:19:03.587Z,45.37
2022-11-21T01:19:35.972Z,45.57
2022-11-21T01:20:09.620Z,45.64
2022-11-21T01:20:44.501Z,45.40
2022-11-21T01:21:18.040Z,45.62
2022-11-21T01:21:50.339Z,45.63
2022-11-21T01:22:23.259Z,45.66
2022-11-21T01:22:58.184Z,45.75
2022-11-21T01:23:30.706Z,45.74
2022-11-21T01:24:03.651Z,45.49
2022-11-21T01:24:38.556Z,45.62
2022-11-21T01:25:10.823Z,45.47
2022-11-21T01:25:43.080Z,45.59
2022-11-21T01:26:19.962Z,45.64
2022-11-21T01:26:53.742Z,45.47
2022-11-21T01:27:26.017Z,45.41
2022-11-21T01:28:00.900Z,45.53
2022-11-21T01:28:33.489Z,45.51
2022-11-21T01:29:06.967Z,45.61
2022-11-21T01:29:44.521Z,45.34
2022-11-21T01:30:17.508Z,45.74
2022-11-21T01:30:49.764Z,45.60
2022-11-21T01:31:26.732Z,45.41
2022-11-21T01:31:59.003Z,45.30
2022-11-21T01:32:31.253Z,45.61
2022-11-21T01:33:06.166Z,45.50
2022-11-21T01:33:38.986Z,45.49
2022-11-21T01:34:11.525Z,45.69
2022-11-21T01:34:46.458Z,45.53
2022-11-21T01:35:18.967Z,45.78
2022-11-21T01:35:51.240Z,45.30
2022-11-21T01:36:27.633Z,45.45
2022-11-21T01:37:01.385Z,45.47
2022-11-21T01:37:33.644Z,45.37
2022-11-21T01:38:08.562Z,45.64
2022-11-21T01:38:41.722Z,45.36
2022-11-21T01:39:14.013Z,45.28
2022-11-21T01:39:48.941Z,45.30
2022-11-21T01:40:21.192Z,45.54
2022-11-21T01:40:53.484Z,45.32
2022-11-21T01:41:28.544Z,45.35
2022-11-21T01:42:03.777Z,45.53
2022-11-21T01:42:49.991Z,45.76
2022-11-21T01:43:22.248Z,45.71
2022-11-21T01:43:57.284Z,45.82
2022-11-21T01:44:50.643Z,45.42
2022-11-21T01:46:04.535Z,45.37
2022-11-21T01:46:36.819Z,45.64
2022-11-21T01:47:09.077Z,45.37
2022-11-21T01:47:43.935Z,45.65
2022-11-21T01:48:16.248Z,45.41
2022-11-21T01:48:51.654Z,45.73
2022-11-21T01:49:29.479Z,45.66
2022-11-21T01:50:01.783Z,45.53
2022-11-21T01:50:34.047Z,45.55
2022-11-21T01:51:09.316Z,45.51
2022-11-21T01:51:49.162Z,45.54
2022-11-21T01:52:25.154Z,45.51
2022-11-21T01:52:57.409Z,45.27
2022-11-21T01:53:29.927Z,45.66
2022-11-21T01:54:10.664Z,45.40
2022-11-21T01:54:45.298Z,45.31
2022-11-21T01:55:17.586Z,45.64
2022-11-21T01:55:53.021Z,45.40
2022-11-21T01:56:26.267Z,45.15
2022-11-21T01:57:01.148Z,45.30
2022-11-21T01:57:38.458Z,45.39
2022-11-21T01:58:10.901Z,45.65
2022-11-21T01:58:43.774Z,45.56
2022-11-21T01:59:22.077Z,45.43
2022-11-21T01:59:59.643Z,45.05
2022-11-21T02:00:37.147Z,45.50
2022-11-21T02:01:12.203Z,45.16
2022-11-21T02:01:46.883Z,45.35
2022-11-21T02:02:23.428Z,45.15
2022-11-21T02:03:01.240Z,45.51
2022-11-21T02:03:34.989Z,45.29
2022-11-21T02:04:08.393Z,45.36
2022-11-21T02:04:45.192Z,45.38
2022-11-21T02:05:19.887Z,45.19
2022-11-21T02:05:53.159Z,45.45
2022-11-21T02:06:28.697Z,45.23
2022-11-21T02:07:02.721Z,45.41
2022-11-21T02:07:36.562Z,45.49
2022-11-21T02:08:16.009Z,45.38
2022-11-21T02:08:48.374Z,45.46
2022-11-21T02:09:21.509Z,45.47
2022-11-21T02:09:58.815Z,45.47
2022-11-21T02:10:31.078Z,45.23
2022-11-21T02:11:09.485Z,45.35
2022-11-21T02:11:47.416Z,45.08
2022-11-21T02:12:31.234Z,45.51
2022-11-21T02:13:03.541Z,45.40
2022-11-21T02:13:38.418Z,45.52
2022-11-21T02:14:12.060Z,45.07
2022-11-21T02:14:44.825Z,45.49
2022-11-21T02:15:24.056Z,45.16
2022-11-21T02:15:56.411Z,45.29
2022-11-21T02:16:29.251Z,45.55
2022-11-21T02:17:07.843Z,45.49
2022-11-21T02:17:40.146Z,45.40
2022-11-21T02:18:12.414Z,45.15
2022-11-21T02:18:47.379Z,45.37
2022-11-21T02:19:24.864Z,45.42
2022-11-21T02:19:58.903Z,45.43
2022-11-21T02:20:31.316Z,45.47
2022-11-21T02:21:11.202Z,45.15
2022-11-21T02:21:51.188Z,45.33
2022-11-21T02:22:33.283Z,45.26
2022-11-21T02:23:12.850Z,45.38
2022-11-21T02:23:49.876Z,45.46
2022-11-21T02:24:31.099Z,45.54
2022-11-21T02:25:09.944Z,45.64
2022-11-21T02:25:43.738Z,45.25
2022-11-21T02:26:18.716Z,45.30
2022-11-21T02:26:51.035Z,45.41
2022-11-21T02:27:23.338Z,45.23
2022-11-21T02:28:01.847Z,45.64
2022-11-21T02:28:34.722Z,45.49
2022-11-21T02:29:07.103Z,45.47
2022-11-21T02:29:42.465Z,45.61
2022-11-21T02:30:14.927Z,45.33
2022-11-21T02:30:47.398Z,45.56
2022-11-21T02:31:22.301Z,45.59
2022-11-21T02:31:54.548Z,45.23
2022-11-21T02:32:33.328Z,45.22
2022-11-21T02:33:08.857Z,45.53
2022-11-21T02:33:41.145Z,45.52
2022-11-21T02:34:13.607Z,45.61
2022-11-21T02:34:48.537Z,45.15
2022-11-21T02:35:20.786Z,45.65
2022-11-21T02:35:59.879Z,45.33
2022-11-21T02:36:45.047Z,45.42
2022-11-21T02:37:17.661Z,45.30
2022-11-21T02:37:53.793Z,45.22
2022-11-21T02:38:31.771Z,45.27
2022-11-21T02:39:04.436Z,45.18
2022-11-21T02:39:37.369Z,45.47
2022-11-21T02:40:18.280Z,45.20
2022-11-21T02:40:54.234Z,45.51
2022-11-21T02:41:27.544Z,45.54
2022-11-21T02:42:08.360Z,45.39
2022-11-21T02:42:42.557Z,44.93
2022-11-21T02:43:17.060Z,45.11
2022-11-21T02:43:56.015Z,45.14
2022-11-21T02:44:32.029Z,45.48
2022-11-21T02:45:09.292Z,45.23
2022-11-21T02:45:45.541Z,45.22
2022-11-21T02:46:17.853Z,45.33
2022-11-21T02:46:51.553Z,45.18
2022-11-21T02:47:26.858Z,45.64
2022-11-21T02:48:03.704Z,45.65
2022-11-21T02:48:37.281Z,45.21
2022-11-21T02:49:12.812Z,45.26
2022-11-21T02:49:49.764Z,45.16
2022-11-21T02:50:26.024Z,45.28
2022-11-21T02:51:00.942Z,45.23
2022-11-21T02:51:33.290Z,45.45
2022-11-21T02:52:05.664Z,45.51
2022-11-21T02:52:37.927Z,45.18
2022-11-21T02:53:14.491Z,45.27
2022-11-21T02:53:46.930Z,45.27
2022-11-21T02:54:19.296Z,45.61
2022-11-21T02:54:54.212Z,45.65
2022-11-21T02:55:29.260Z,45.28
2022-11-21T02:56:01.596Z,45.29
2022-11-21T02:56:37.052Z,45.28
2022-11-21T02:57:09.896Z,45.28
2022-11-21T02:57:42.536Z,45.55
2022-11-21T02:58:17.573Z,45.42
2022-11-21T02:58:49.832Z,45.28
2022-11-21T02:59:22.083Z,45.37
2022-11-21T02:59:57.001Z,45.64
2022-11-21T03:00:29.342Z,45.60
2022-11-21T03:01:01.744Z,45.56
2022-11-21T03:01:37.121Z,45.19
2022-11-21T03:02:09.437Z,45.27
2022-11-21T03:02:41.800Z,45.18
2022-11-21T03:03:16.734Z,45.60
2022-11-21T03:03:49.004Z,45.57
2022-11-21T03:04:21.311Z,45.26
2022-11-21T03:04:56.232Z,45.64
2022-11-21T03:05:28.680Z,45.24
2022-11-21T03:06:00.960Z,45.25
2022-11-21T03:06:33.209Z,45.38
2022-11-21T03:07:08.351Z,45.30
2022-11-21T03:07:40.784Z,45.25
2022-11-21T03:08:13.064Z,45.33
2022-11-21T03:08:48.052Z,45.40
2022-11-21T03:09:20.337Z,45.37
2022-11-21T03:09:52.659Z,45.28
2022-11-21T03:10:25.011Z,45.52
2022-11-21T03:11:02.524Z,45.25
2022-11-21T03:11:34.837Z,45.28
2022-11-21T03:12:07.761Z,45.54
2022-11-21T03:12:43.591Z,45.52
2022-11-21T03:13:15.941Z,45.16
2022-11-21T03:13:48.235Z,45.47
2022-11-21T03:14:23.175Z,45.22
2022-11-21T03:14:55.409Z,45.19
2022-11-21T03:15:28.677Z,45.23
2022-11-21T03:16:03.584Z,45.21
2022-11-21T03:16:35.860Z,45.16
2022-11-21T03:17:08.223Z,45.21
2022-11-21T03:17:43.530Z,45.26
2022-11-21T03:18:15.844Z,45.30
2022-11-21T03:18:48.161Z,45.29
2022-11-21T03:19:23.083Z,45.13
2022-11-21T03:19:55.332Z,45.22
2022-11-21T03:20:27.608Z,45.49
2022-11-21T03:21:02.664Z,45.47
2022-11-21T03:21:35.040Z,45.40
2022-11-21T03:22:07.462Z,45.15
2022-11-21T03:22:42.426Z,45.16
2022-11-21T03:23:14.711Z,45.57
2022-11-21T03:23:47.126Z,45.08
2022-11-21T03:24:22.039Z,45.25
2022-11-21T03:24:54.338Z,45.11
2022-11-21T03:25:26.804Z,45.09
2022-11-21T03:26:04.748Z,45.15
2022-11-21T03:26:37.018Z,45.35
2022-11-21T03:27:09.296Z,45.13
2022-11-21T03:27:44.188Z,45.37
2022-11-21T03:28:16.464Z,45.08
2022-11-21T03:28:48.763Z,45.20
2022-11-21T03:29:23.665Z,45.54
2022-11-21T03:29:55.975Z,44.99
2022-11-21T03:30:28.303Z,45.49
2022-11-21T03:31:03.210Z,45.92
2022-11-21T03:31:35.622Z,46.58
2022-11-21T03:32:08.112Z,46.34
2022-11-21T03:32:42.996Z,46.30
2022-11-21T03:33:15.265Z,45.81
2022-11-21T03:33:47.531Z,45.88
2022-11-21T03:34:22.546Z,45.47
2022-11-21T03:34:54.812Z,45.14
2022-11-21T03:35:27.120Z,45.25
2022-11-21T03:36:02.010Z,44.94
2022-11-21T03:36:34.272Z,44.88
2022-11-21T03:37:06.682Z,44.72
2022-11-21T03:37:41.620Z,44.61
2022-11-21T03:38:13.942Z,44.61
2022-11-21T03:38:46.203Z,44.30
2022-11-21T03:39:21.140Z,44.18
2022-11-21T03:39:53.392Z,43.86
2022-11-21T03:40:25.775Z,43.78
2022-11-21T03:41:00.660Z,43.67
2022-11-21T03:41:35.595Z,43.58
2022-11-21T03:42:07.863Z,43.95
2022-11-21T03:42:42.803Z,43.72
2022-11-21T03:43:15.103Z,43.71
2022-11-21T03:43:47.356Z,43.57
2022-11-21T03:44:22.247Z,43.54
2022-11-21T03:44:54.553Z,43.53
2022-11-21T03:45:26.845Z,43.48
2022-11-21T03:46:01.838Z,43.65
2022-11-21T03:46:36.720Z,43.58
2022-11-21T03:47:08.975Z,43.62
2022-11-21T03:47:44.239Z,43.27
2022-11-21T03:48:16.479Z,43.16
2022-11-21T03:48:48.808Z,43.55
2022-11-21T03:49:23.711Z,43.37
2022-11-21T03:49:55.974Z,42.99
2022-11-21T03:50:28.289Z,43.43
2022-11-21T03:51:03.168Z,43.06
2022-11-21T03:51:36.201Z,43.40
2022-11-21T03:52:08.460Z,43.45
2022-11-21T03:52:43.587Z,43.18
2022-11-21T03:53:15.860Z,43.17
2022-11-21T03:53:48.187Z,42.94
2022-11-21T03:54:23.087Z,42.89
2022-11-21T03:54:55.401Z,43.33
2022-11-21T03:55:27.716Z,43.24
2022-11-21T03:56:02.650Z,43.04
2022-11-21T03:56:39.900Z,43.34
2022-11-21T03:57:12.162Z,43.23
2022-11-21T03:57:47.076Z,42.85
2022-11-21T03:58:19.332Z,43.23
2022-11-21T03:58:51.968Z,43.16
2022-11-21T03:59:26.864Z,42.93
2022-11-21T03:59:59.129Z,43.30
2022-11-21T04:00:31.508Z,42.85
2022-11-21T04:01:06.627Z,43.13
2022-11-21T04:01:39.182Z,42.96
2022-11-21T04:02:11.584Z,43.15
2022-11-21T04:02:46.499Z,43.37
2022-11-21T04:03:18.759Z,43.34
2022-11-21T04:03:51.489Z,42.91
2022-11-21T04:04:26.688Z,42.99
2022-11-21T04:04:59.209Z,42.95
2022-11-21T04:05:31.517Z,43.35
2022-11-21T04:06:06.633Z,43.00
2022-11-21T04:06:38.921Z,43.21
2022-11-21T04:07:14.025Z,42.94
2022-11-21T04:07:46.488Z,43.15
2022-11-21T04:08:18.770Z,42.95
2022-11-21T04:08:53.936Z,42.99
2022-11-21T04:09:26.192Z,42.95
2022-11-21T04:09:58.504Z,43.16
2022-11-21T04:10:33.417Z,42.94
2022-11-21T04:11:06.015Z,43.38
2022-11-21T04:11:40.940Z,43.11
2022-11-21T04:12:16.023Z,43.15
2022-11-21T04:12:48.281Z,43.11
2022-11-21T04:13:20.782Z,42.89
2022-11-21T04:13:55.947Z,43.11
2022-11-21T04:14:28.357Z,43.16
2022-11-21T04:15:00.735Z,43.32
2022-11-21T04:15:32.987Z,43.32
2022-11-21T04:16:08.556Z,43.02
2022-11-21T04:16:40.803Z,43.07
2022-11-21T04:17:13.096Z,43.13
2022-11-21T04:17:48.169Z,43.30
2022-11-21T04:18:20.435Z,42.96
2022-11-21T04:18:52.694Z,43.16
2022-11-21T04:19:27.601Z,43.08
2022-11-21T04:19:59.844Z,43.15
2022-11-21T04:20:32.114Z,43.12
2022-11-21T04:21:09.100Z,42.89
2022-11-21T04:21:41.355Z,43.11
2022-11-21T04:22:13.680Z,42.93
2022-11-21T04:22:48.668Z,43.11
2022-11-21T04:23:20.964Z,43.14
2022-11-21T04:23:53.280Z,43.25
2022-11-21T04:24:28.648Z,43.32
2022-11-21T04:25:01.082Z,43.08
2022-11-21T04:25:34.065Z,43.04
2022-11-21T04:26:09.004Z,42.83
2022-11-21T04:26:43.873Z,43.26
2022-11-21T04:27:16.172Z,43.30
2022-11-21T04:27:51.142Z,43.03
2022-11-21T04:28:23.688Z,43.06
2022-11-21T04:28:55.984Z,42.96
2022-11-21T04:29:30.904Z,42.91
2022-11-21T04:30:03.485Z,43.27
2022-11-21T04:30:35.749Z,42.89
2022-11-21T04:31:11.053Z,43.09
2022-11-21T04:31:46.280Z,42.91
2022-11-21T04:32:18.580Z,43.06
2022-11-21T04:32:51.296Z,43.14
2022-11-21T04:33:26.196Z,43.24
2022-11-21T04:33:58.475Z,42.72
2022-11-21T04:34:30.925Z,42.79
2022-11-21T04:35:06.060Z,42.94
2022-11-21T04:35:38.388Z,42.90
2022-11-21T04:36:10.795Z,42.93
2022-11-21T04:36:43.234Z,43.14
2022-11-21T04:37:18.252Z,43.10
2022-11-21T04:37:50.677Z,42.87
2022-11-21T04:38:22.923Z,43.18
2022-11-21T04:38:57.840Z,43.16
2022-11-21T04:39:30.088Z,43.22
2022-11-21T04:40:02.426Z,43.06
2022-11-21T04:40:35.564Z,43.04
2022-11-21T04:41:10.501Z,42.65
2022-11-21T04:41:45.396Z,42.75
2022-11-21T04:42:17.688Z,43.11
2022-11-21T04:42:52.640Z,42.78
2022-11-21T04:43:24.927Z,43.04
2022-11-21T04:43:57.177Z,42.99
2022-11-21T04:44:32.088Z,42.85
2022-11-21T04:45:05.698Z,43.11
2022-11-21T04:45:37.985Z,42.94
2022-11-21T04:46:12.897Z,42.88
2022-11-21T04:46:45.194Z,42.73
2022-11-21T04:47:17.502Z,43.12
2022-11-21T04:47:52.596Z,42.83
2022-11-21T04:48:24.979Z,42.93
2022-11-21T04:48:57.244Z,43.08
2022-11-21T04:49:32.136Z,42.91
2022-11-21T04:50:05.309Z,43.08
2022-11-21T04:50:37.631Z,42.82
2022-11-21T04:51:12.531Z,42.93
2022-11-21T04:51:44.796Z,42.93
2022-11-21T04:52:17.098Z,42.63
2022-11-21T04:52:55.924Z,43.06
2022-11-21T04:53:28.220Z,42.96
2022-11-21T04:54:00.484Z,42.72
2022-11-21T04:54:35.416Z,42.69
2022-11-21T04:55:08.838Z,42.92
2022-11-21T04:55:41.129Z,42.77
2022-11-21T04:56:17.189Z,42.98
2022-11-21T04:56:52.131Z,43.06
2022-11-21T04:57:24.665Z,43.01
2022-11-21T04:57:57.133Z,42.92
2022-11-21T04:58:32.045Z,43.14
2022-11-21T04:59:04.403Z,43.06
2022-11-21T04:59:36.708Z,42.68
2022-11-21T05:00:12.996Z,42.80
2022-11-21T05:00:45.245Z,43.11
2022-11-21T05:01:20.262Z,42.89
2022-11-21T05:01:52.688Z,42.63
2022-11-21T05:02:25.091Z,42.62
2022-11-21T05:03:05.135Z,42.98
2022-11-21T05:03:37.718Z,43.10
2022-11-21T05:04:09.980Z,42.91
2022-11-21T05:04:44.888Z,42.87
2022-11-21T05:05:17.231Z,42.95
2022-11-21T05:05:52.169Z,42.99
2022-11-21T05:06:24.399Z,43.02
2022-11-21T05:06:56.651Z,42.81
2022-11-21T05:07:31.593Z,42.87
2022-11-21T05:08:04.101Z,43.16
2022-11-21T05:08:36.492Z,42.87
2022-11-21T05:09:08.992Z,42.89
2022-11-21T05:09:44.336Z,42.91
2022-11-21T05:10:16.820Z,43.13
2022-11-21T05:11:04.073Z,42.79
2022-11-21T05:11:51.316Z,43.18
2022-11-21T05:12:41.224Z,42.91
2022-11-21T05:13:22.360Z,43.02
2022-11-21T05:13:57.609Z,42.75
2022-11-21T05:14:30.096Z,43.04
2022-11-21T05:15:02.496Z,42.95
2022-11-21T05:15:34.760Z,42.91
2022-11-21T05:16:09.709Z,42.70
2022-11-21T05:16:41.967Z,43.01
2022-11-21T05:17:14.280Z,42.95
2022-11-21T05:17:49.209Z,43.05
2022-11-21T05:18:21.485Z,43.15
2022-11-21T05:18:53.759Z,42.87
2022-11-21T05:19:28.691Z,42.92
2022-11-21T05:20:01.100Z,42.99
2022-11-21T05:20:36.726Z,42.72
2022-11-21T05:21:11.928Z,42.99
2022-11-21T05:21:44.228Z,42.84
2022-11-21T05:22:16.480Z,42.72
2022-11-21T05:22:54.615Z,43.13
2022-11-21T05:23:26.943Z,42.96
2022-11-21T05:23:59.345Z,42.89
2022-11-21T05:24:34.287Z,43.07
2022-11-21T05:25:07.245Z,42.96
2022-11-21T05:25:40.622Z,42.86
2022-11-21T05:26:15.558Z,43.24
2022-11-21T05:26:47.888Z,43.25
2022-11-21T05:27:20.150Z,43.28
2022-11-21T05:27:58.711Z,43.05
2022-11-21T05:28:31.013Z,43.23
2022-11-21T05:29:06.132Z,42.94
2022-11-21T05:29:38.395Z,42.91
2022-11-21T05:30:12.332Z,43.27
2022-11-21T05:30:47.263Z,43.06
2022-11-21T05:31:19.529Z,43.03
2022-11-21T05:31:51.818Z,43.07
2022-11-21T05:32:26.952Z,42.79
2022-11-21T05:32:59.200Z,43.12
2022-11-21T05:33:34.097Z,42.99
2022-11-21T05:34:06.367Z,43.26
2022-11-21T05:34:38.644Z,43.00
2022-11-21T05:35:13.573Z,42.87
2022-11-21T05:35:45.907Z,42.95
2022-11-21T05:36:18.163Z,43.19
2022-11-21T05:36:57.234Z,42.77
2022-11-21T05:37:29.552Z,43.01
2022-11-21T05:38:01.884Z,43.20
2022-11-21T05:38:36.900Z,42.96
2022-11-21T05:39:09.183Z,42.84
2022-11-21T05:39:41.495Z,42.86
2022-11-21T05:40:16.462Z,43.04
2022-11-21T05:40:48.726Z,42.84
2022-11-21T05:41:23.653Z,42.85
2022-11-21T05:42:01.319Z,42.81
2022-11-21T05:42:50.097Z,43.13
2022-11-21T05:43:39.996Z,43.07
2022-11-21T05:44:14.888Z,42.85
2022-11-21T05:44:47.251Z,43.16
2022-11-21T05:45:19.493Z,42.85
2022-11-21T05:45:51.825Z,43.14
2022-11-21T05:46:29.160Z,43.21
2022-11-21T05:47:01.422Z,42.87
2022-11-21T05:47:33.780Z,42.96
2022-11-21T05:48:10.106Z,43.16
2022-11-21T05:48:42.728Z,43.08
2022-11-21T05:49:17.848Z,43.16
2022-11-21T05:49:50.173Z,43.25
2022-11-21T05:50:22.547Z,42.79
2022-11-21T05:50:57.637Z,43.14
2022-11-21T05:51:29.903Z,43.11
2022-11-21T05:52:02.166Z,42.77
2022-11-21T05:52:37.080Z,42.94
2022-11-21T05:53:09.341Z,43.06
2022-11-21T05:53:44.746Z,42.79
2022-11-21T05:54:17.467Z,43.23
2022-11-21T05:54:50.006Z,43.33
2022-11-21T05:55:24.968Z,43.32
2022-11-21T05:55:57.246Z,43.35
2022-11-21T05:56:32.131Z,43.27
2022-11-21T05:57:04.617Z,43.04
2022-11-21T05:57:36.902Z,42.90
2022-11-21T05:58:10.925Z,43.08
2022-11-21T05:58:48.990Z,42.85
2022-11-21T05:59:21.264Z,42.86
2022-11-21T05:59:53.629Z,43.20
2022-11-21T06:00:28.620Z,42.93
2022-11-21T06:01:01.420Z,42.79
2022-11-21T06:01:51.603Z,41.68
2022-11-21T06:02:38.882Z,41.71
2022-11-21T06:03:26.505Z,42.36
2022-11-21T06:03:58.777Z,42.17
2022-11-21T06:04:33.666Z,42.53
2022-11-21T06:05:06.892Z,42.97
2022-11-21T06:05:39.199Z,42.97
2022-11-21T06:06:16.381Z,43.29
2022-11-21T06:06:50.977Z,43.41
2022-11-21T06:07:23.253Z,43.18
2022-11-21T06:07:58.199Z,43.74
2022-11-21T06:08:32.163Z,43.85
2022-11-21T06:09:05.139Z,43.65
2022-11-21T06:09:40.044Z,44.05
2022-11-21T06:10:12.310Z,44.05
2022-11-21T06:10:44.660Z,44.00
2022-11-21T06:11:20.037Z,44.11
2022-11-21T06:11:52.323Z,44.08
2022-11-21T06:12:25.795Z,44.44
2022-11-21T06:13:03.125Z,44.59
2022-11-21T06:13:35.569Z,44.60
2022-11-21T06:14:13.178Z,44.30
2022-11-21T06:14:45.575Z,44.22
2022-11-21T06:15:17.878Z,44.63
2022-11-21T06:15:54.202Z,44.61
2022-11-21T06:16:29.082Z,44.43
2022-11-21T06:17:01.412Z,44.75
2022-11-21T06:17:33.672Z,44.60
2022-11-21T06:18:09.851Z,44.49
2022-11-21T06:18:43.840Z,44.38
2022-11-21T06:19:18.900Z,44.38
2022-11-21T06:19:51.148Z,44.71
2022-11-21T06:20:23.423Z,44.55
2022-11-21T06:21:04.133Z,44.89
2022-11-21T06:21:37.435Z,44.72
2022-11-21T06:22:09.750Z,44.41
2022-11-21T06:22:44.652Z,44.41
2022-11-21T06:23:16.960Z,44.50
2022-11-21T06:23:54.187Z,44.75
2022-11-21T06:24:26.547Z,44.66
2022-11-21T06:24:59.161Z,44.77
2022-11-21T06:25:34.065Z,44.46
2022-11-21T06:26:07.821Z,44.81
2022-11-21T06:26:42.752Z,44.56
2022-11-21T06:27:14.998Z,44.89
2022-11-21T06:27:47.244Z,44.77
2022-11-21T06:28:22.163Z,44.44
2022-11-21T06:28:54.867Z,44.48
2022-11-21T06:29:32.380Z,44.67
2022-11-21T06:30:05.352Z,44.89
2022-11-21T06:30:38.115Z,44.77
2022-11-21T06:31:14.568Z,44.50
2022-11-21T06:31:46.812Z,44.89
2022-11-21T06:32:19.090Z,44.67
2022-11-21T06:32:54.086Z,44.79
2022-11-21T06:33:26.408Z,44.75
2022-11-21T06:33:59.685Z,44.66
2022-11-21T06:34:34.600Z,45.01
2022-11-21T06:35:07.552Z,44.89
2022-11-21T06:35:40.157Z,44.72
2022-11-21T06:36:16.261Z,44.60
2022-11-21T06:36:49.558Z,44.79
2022-11-21T06:37:21.825Z,44.60
2022-11-21T06:37:56.709Z,44.97
2022-11-21T06:38:28.999Z,44.62
2022-11-21T06:39:01.506Z,44.70
2022-11-21T06:39:36.389Z,44.78
2022-11-21T06:40:10.331Z,44.67
2022-11-21T06:40:42.648Z,44.99
2022-11-21T06:41:19.490Z,44.73
2022-11-21T06:41:51.752Z,44.83
2022-11-21T06:42:23.998Z,44.57
2022-11-21T06:43:00.079Z,44.81
2022-11-21T06:43:32.336Z,44.78
2022-11-21T06:44:07.507Z,45.05
2022-11-21T06:44:42.373Z,45.06
2022-11-21T06:45:14.808Z,45.21
2022-11-21T06:45:49.712Z,45.21
2022-11-21T06:46:21.995Z,44.87
2022-11-21T06:46:56.927Z,44.85
2022-11-21T06:47:29.213Z,44.78
2022-11-21T06:48:02.279Z,45.02
2022-11-21T06:48:38.397Z,45.36
2022-11-21T06:49:10.711Z,45.08
2022-11-21T06:49:45.571Z,45.19
2022-11-21T06:50:17.932Z,45.14
2022-11-21T06:50:50.193Z,45.36
2022-11-21T06:51:26.416Z,45.42
2022-11-21T06:51:58.708Z,45.13
2022-11-21T06:52:33.100Z,44.94
2022-11-21T06:53:08.306Z,45.29
2022-11-21T06:53:40.634Z,45.35
2022-11-21T06:54:16.715Z,45.30
2022-11-21T06:54:52.024Z,45.18
2022-11-21T06:55:25.311Z,45.27
2022-11-21T06:55:59.161Z,45.28
2022-11-21T06:56:34.993Z,44.98
2022-11-21T06:57:07.361Z,45.31
2022-11-21T06:57:39.606Z,45.23
2022-11-21T06:58:14.523Z,45.08
2022-11-21T06:58:46.841Z,45.34
2022-11-21T06:59:19.092Z,45.31
2022-11-21T06:59:56.576Z,45.24
2022-11-21T07:00:28.934Z,45.10
2022-11-21T07:01:07.624Z,45.01
2022-11-21T07:01:39.959Z,45.38
2022-11-21T07:02:13.385Z,45.06
2022-11-21T07:02:48.440Z,45.28
2022-11-21T07:03:21.311Z,45.04
2022-11-21T07:03:53.709Z,45.23
2022-11-21T07:04:28.884Z,45.32
2022-11-21T07:05:01.292Z,45.46
2022-11-21T07:05:33.652Z,45.46
2022-11-21T07:06:09.148Z,45.38
2022-11-21T07:06:41.409Z,45.49
2022-11-21T07:07:13.707Z,45.52
2022-11-21T07:07:48.705Z,45.06
2022-11-21T07:08:20.943Z,45.13
2022-11-21T07:09:17.633Z,45.19
2022-11-21T07:09:49.096Z,45.41
2022-11-21T07:10:21.569Z,45.56
2022-11-21T07:11:23.539Z,45.25
2022-11-21T07:11:51.228Z,45.19
2022-11-21T07:12:38.485Z,45.47
2022-11-21T07:13:23.682Z,45.61
2022-11-21T07:13:58.598Z,45.46
2022-11-21T07:14:30.853Z,45.33
2022-11-21T07:15:06.615Z,45.26
2022-11-21T07:15:38.873Z,45.67
2022-11-21T07:16:15.761Z,45.42
2022-11-21T07:16:48.005Z,45.59
2022-11-21T07:17:20.297Z,45.58
2022-11-21T07:17:55.216Z,45.58
2022-11-21T07:18:27.733Z,45.28
2022-11-21T07:19:03.300Z,45.64
2022-11-21T07:19:40.634Z,45.33
2022-11-21T07:20:15.943Z,45.45